Time;durP1;ratioP1;P1;durP2;ratioP2;P2;SDS_P1;SDS_P2;PMS_P1;PMS_P2;Temp;Humidity;BMP_temperature;BMP_pressure;BME280_temperature;BME280_humidity;BME280_pressure;Samples;Min_cycle;Max_cycle;Signal;HPM_P1;HPM_P2
2024/04/19 00:00:36;;;;;;;12.30;3.65;;;8.80;99.90;;;;;;6348048;22;20434;-95
2024/04/19 00:03:02;;;;;;;17.90;3.08;;;8.80;99.90;;;;;;6357099;22;19991;-93
2024/04/19 00:05:28;;;;;;;11.48;2.90;;;8.80;99.90;;;;;;6351433;22;20011;-91
2024/04/19 00:07:54;;;;;;;8.35;2.60;;;8.80;99.90;;;;;;6346798;22;19995;-92
2024/04/19 00:10:20;;;;;;;10.68;2.83;;;8.80;99.90;;;;;;6347761;22;19999;-93
2024/04/19 00:12:45;;;;;;;14.25;3.03;;;8.80;99.90;;;;;;6346839;22;20418;-95
2024/04/19 00:15:11;;;;;;;15.43;2.78;;;8.80;99.90;;;;;;6346787;22;19999;-95
2024/04/19 00:17:37;;;;;;;14.77;2.58;;;8.80;99.90;;;;;;6348763;22;20011;-89
2024/04/19 00:20:04;;;;;;;9.05;2.88;;;8.80;99.90;;;;;;6356967;22;20117;-91
2024/04/19 00:22:29;;;;;;;7.82;2.40;;;8.80;99.90;;;;;;6356983;22;20003;-93
2024/04/19 00:24:55;;;;;;;11.45;2.75;;;8.80;99.90;;;;;;6357239;22;20075;-92
2024/04/19 00:27:22;;;;;;;6.50;2.88;;;8.80;99.90;;;;;;6356584;22;20026;-91
2024/04/19 00:29:48;;;;;;;7.50;2.60;;;8.80;99.90;;;;;;6357321;22;20047;-94
2024/04/19 00:32:13;;;;;;;10.45;3.60;;;8.80;99.90;;;;;;6352345;22;20027;-92
2024/04/19 00:34:39;;;;;;;10.88;3.40;;;8.80;99.90;;;;;;6355137;22;19999;-93
2024/04/19 00:37:05;;;;;;;8.45;2.33;;;8.80;99.90;;;;;;6355161;22;20010;-92
2024/04/19 00:39:30;;;;;;;11.85;1.92;;;8.80;99.90;;;;;;6357165;22;20010;-92
2024/04/19 00:41:56;;;;;;;6.18;1.60;;;8.80;99.90;;;;;;6392280;22;19999;-94
2024/04/19 00:44:22;;;;;;;5.13;1.60;;;8.80;99.90;;;;;;6349325;22;20055;-93
2024/04/19 00:46:48;;;;;;;8.80;1.58;;;8.80;99.90;;;;;;6348887;22;20012;-93
2024/04/19 00:49:14;;;;;;;6.60;1.40;;;8.80;99.90;;;;;;6346141;22;20007;-93
2024/04/19 00:51:40;;;;;;;9.48;1.55;;;8.80;99.90;;;;;;6348832;22;20010;-92
2024/04/19 00:54:05;;;;;;;5.68;1.45;;;8.80;99.90;;;;;;6343046;22;20002;-92
2024/04/19 00:56:31;;;;;;;4.45;1.60;;;8.80;99.90;;;;;;6343174;22;19999;-94
2024/04/19 00:58:57;;;;;;;5.43;1.58;;;8.80;99.90;;;;;;6351463;22;20444;-92
2024/04/19 01:01:23;;;;;;;4.43;1.20;;;8.80;99.90;;;;;;6347778;22;20011;-93
2024/04/19 01:03:48;;;;;;;4.45;1.55;;;8.80;99.90;;;;;;6342344;22;20010;-93
2024/04/19 01:06:14;;;;;;;8.02;1.60;;;8.80;99.90;;;;;;6344697;22;19995;-93
2024/04/19 01:08:39;;;;;;;6.30;1.40;;;8.80;99.90;;;;;;6350351;22;20015;-92
2024/04/19 01:11:05;;;;;;;7.93;1.30;;;8.80;99.90;;;;;;6353562;22;20031;-90
2024/04/19 01:13:31;;;;;;;6.20;1.25;;;8.80;99.90;;;;;;6398036;22;20028;-91
2024/04/19 01:15:57;;;;;;;7.72;1.20;;;8.80;99.90;;;;;;6355934;22;20005;-91
2024/04/19 01:18:22;;;;;;;3.08;0.65;;;8.80;99.90;;;;;;6350580;22;20039;-93
2024/04/19 01:20:48;;;;;;;5.57;0.80;;;8.80;99.90;;;;;;6349722;22;19999;-93
2024/04/19 01:23:17;;;;;;;1.83;0.80;;;8.80;99.90;;;;;;6342348;22;19999;-93
2024/04/19 01:25:43;;;;;;;5.20;1.38;;;8.80;99.90;;;;;;6344889;22;20010;-92
2024/04/19 01:28:11;;;;;;;3.97;1.10;;;8.80;99.90;;;;;;6354261;22;19995;-92
2024/04/19 01:30:44;;;;;;;2.85;1.00;;;8.80;99.90;;;;;;6349607;22;20010;-93
2024/04/19 01:33:11;;;;;;;6.57;1.33;;;8.80;99.90;;;;;;6351638;22;19987;-94
2024/04/19 01:35:37;;;;;;;4.15;0.85;;;8.80;99.90;;;;;;6351336;22;19996;-94
2024/04/19 01:38:03;;;;;;;5.15;1.15;;;8.80;99.90;;;;;;6343554;22;20003;-93
2024/04/19 01:40:28;;;;;;;5.97;1.30;;;8.80;99.90;;;;;;6344217;22;20047;-94
2024/04/19 01:42:54;;;;;;;2.30;1.00;;;8.80;99.90;;;;;;6341105;22;20002;-93
2024/04/19 01:45:20;;;;;;;7.15;1.92;;;8.80;99.90;;;;;;6345646;22;19995;-93
2024/04/19 01:47:47;;;;;;;3.53;0.98;;;8.80;99.90;;;;;;6344380;22;20002;-93
2024/04/19 01:50:12;;;;;;;3.90;1.23;;;8.80;99.90;;;;;;6351263;22;20000;-93
2024/04/19 01:52:38;;;;;;;6.25;0.98;;;8.80;99.90;;;;;;6347427;22;20004;-93
2024/04/19 01:55:05;;;;;;;6.82;0.90;;;8.70;99.90;;;;;;6351214;22;20508;-94
2024/04/19 01:57:30;;;;;;;3.83;0.70;;;8.70;99.90;;;;;;6343911;22;20039;-93
2024/04/19 01:59:56;;;;;;;5.03;0.77;;;8.70;99.90;;;;;;6346271;22;20007;-92
2024/04/19 02:02:22;;;;;;;3.60;0.60;;;8.70;99.90;;;;;;6339556;22;20009;-93
2024/04/19 02:04:50;;;;;;;4.07;0.77;;;8.70;99.90;;;;;;6337501;22;20357;-92
2024/04/19 02:07:15;;;;;;;5.47;1.05;;;8.70;99.90;;;;;;6342431;22;20007;-92
2024/04/19 02:09:41;;;;;;;9.13;1.13;;;8.70;99.90;;;;;;6344796;22;19995;-91
2024/04/19 02:12:07;;;;;;;9.73;1.40;;;8.70;99.90;;;;;;6343886;22;20003;-93
2024/04/19 02:14:33;;;;;;;4.28;1.20;;;8.70;99.90;;;;;;6339590;22;20429;-92
2024/04/19 02:16:59;;;;;;;11.60;1.55;;;8.70;99.90;;;;;;6335788;22;19999;-92
2024/04/19 02:19:26;;;;;;;4.75;1.20;;;8.70;99.90;;;;;;6337126;22;19995;-94
2024/04/19 02:21:52;;;;;;;4.47;1.10;;;8.70;99.90;;;;;;6334555;22;20007;-93
2024/04/19 02:24:17;;;;;;;4.65;1.05;;;8.60;99.90;;;;;;6335023;22;20005;-93
2024/04/19 02:26:43;;;;;;;9.68;1.15;;;8.60;99.90;;;;;;6334737;22;19999;-93
2024/04/19 02:31:53;;;;;;;8.55;1.30;;;8.60;99.90;;;;;;6379038;22;20002;-93
2024/04/19 02:34:19;;;;;;;7.13;1.45;;;8.60;99.90;;;;;;6377278;22;19991;-93
2024/04/19 02:36:44;;;;;;;7.93;1.60;;;8.60;99.90;;;;;;6334926;22;19995;-93
2024/04/19 02:39:11;;;;;;;3.28;0.90;;;8.60;99.90;;;;;;6339318;22;19999;-94
2024/04/19 02:41:37;;;;;;;9.18;1.52;;;8.60;99.90;;;;;;6339181;22;19995;-94
2024/04/19 02:44:03;;;;;;;6.18;1.20;;;8.60;99.90;;;;;;6334460;22;20355;-93
2024/04/19 02:46:29;;;;;;;5.88;1.70;;;8.50;99.90;;;;;;6334022;22;19999;-92
2024/04/19 02:48:54;;;;;;;8.98;1.30;;;8.50;99.90;;;;;;6334474;22;20010;-92
2024/04/19 02:51:20;;;;;;;4.07;0.90;;;8.40;99.90;;;;;;6334737;22;19999;-93
2024/04/19 02:53:47;;;;;;;7.20;0.95;;;8.40;99.90;;;;;;6335090;22;19995;-92
2024/04/19 02:56:13;;;;;;;7.32;1.00;;;8.40;99.90;;;;;;6335038;22;20006;-93
2024/04/19 02:58:40;;;;;;;2.90;1.00;;;8.40;99.90;;;;;;6335585;22;20002;-93
2024/04/19 03:01:06;;;;;;;7.30;1.17;;;8.40;99.90;;;;;;6336075;22;19998;-93
2024/04/19 03:03:32;;;;;;;6.72;1.35;;;8.40;99.90;;;;;;6378490;22;20024;-93
2024/04/19 03:05:57;;;;;;;3.63;0.95;;;8.40;99.90;;;;;;6336971;22;20299;-94
2024/04/19 03:08:23;;;;;;;4.15;1.10;;;8.40;99.90;;;;;;6340793;22;19999;-92
2024/04/19 03:10:49;;;;;;;4.75;0.93;;;8.40;99.90;;;;;;6379821;22;19991;-93
2024/04/19 03:13:15;;;;;;;4.78;1.00;;;8.40;99.90;;;;;;6383392;22;19992;-93
2024/04/19 03:15:42;;;;;;;7.75;0.95;;;8.40;99.90;;;;;;6337837;22;20027;-93
2024/04/19 03:18:08;;;;;;;7.65;1.35;;;8.50;99.90;;;;;;6339860;22;20074;-92
2024/04/19 03:20:34;;;;;;;7.45;1.20;;;8.50;99.90;;;;;;6340378;22;20298;-93
2024/04/19 03:23:00;;;;;;;6.13;1.38;;;8.50;99.90;;;;;;6338743;22;20002;-93
2024/04/19 03:25:26;;;;;;;9.32;1.13;;;8.40;99.90;;;;;;6336815;22;19995;-92
2024/04/19 03:27:52;;;;;;;12.65;1.17;;;8.40;99.90;;;;;;6336522;22;20006;-93
2024/04/19 03:30:36;;;;;;;4.40;0.95;;;8.40;99.90;;;;;;6338721;22;19995;-92
2024/04/19 03:33:02;;;;;;;3.47;0.93;;;8.40;99.90;;;;;;6378891;22;19999;-92
2024/04/19 03:35:27;;;;;;;3.92;1.00;;;8.40;99.90;;;;;;6339519;22;20313;-93
2024/04/19 03:37:53;;;;;;;10.23;1.20;;;8.30;99.90;;;;;;6339239;22;19999;-92
2024/04/19 03:40:19;;;;;;;3.80;0.77;;;8.40;99.90;;;;;;6338010;22;19999;-93
2024/04/19 03:42:48;;;;;;;4.75;0.93;;;8.30;99.90;;;;;;6345979;22;19999;-92
2024/04/19 03:47:59;;;;;;;5.90;1.13;;;8.30;99.90;;;;;;6393025;22;20078;-92
2024/04/19 03:50:25;;;;;;;5.53;1.25;;;8.30;99.90;;;;;;6349325;22;20081;-91
2024/04/19 03:52:53;;;;;;;2.92;1.00;;;8.30;99.90;;;;;;6392793;22;20002;-92
2024/04/19 03:55:18;;;;;;;8.30;1.38;;;8.40;99.90;;;;;;6351090;22;20006;-92
2024/04/19 03:57:44;;;;;;;5.78;1.20;;;8.30;99.90;;;;;;6354173;22;20102;-92
2024/04/19 04:00:10;;;;;;;3.42;0.80;;;8.30;99.90;;;;;;6356293;22;19983;-89
2024/04/19 04:02:36;;;;;;;5.65;1.00;;;8.30;99.90;;;;;;6362006;22;20019;-90
2024/04/19 04:05:01;;;;;;;9.77;1.20;;;8.30;99.90;;;;;;6360588;22;19991;-91
2024/04/19 04:07:28;;;;;;;8.23;2.25;;;8.30;99.90;;;;;;6361426;22;19988;-92
2024/04/19 04:09:54;;;;;;;2.55;0.68;;;8.30;99.90;;;;;;6360940;22;20039;-91
2024/04/19 04:12:20;;;;;;;3.35;1.00;;;8.30;99.90;;;;;;6361060;22;19987;-92
2024/04/19 04:14:45;;;;;;;9.93;1.30;;;8.30;99.90;;;;;;6358677;22;19999;-94
2024/04/19 04:17:11;;;;;;;7.07;2.22;;;8.30;99.90;;;;;;6354846;22;20019;-93
2024/04/19 04:19:37;;;;;;;6.60;1.20;;;8.30;99.90;;;;;;6358859;22;20011;-93
2024/04/19 04:22:03;;;;;;;9.82;1.42;;;8.40;99.90;;;;;;6358867;22;19999;-91
2024/04/19 04:24:28;;;;;;;5.65;1.25;;;8.40;99.90;;;;;;6358685;22;19996;-94
2024/04/19 04:26:54;;;;;;;5.22;1.20;;;8.40;99.90;;;;;;6360000;22;20000;-93
2024/04/19 04:29:20;;;;;;;3.90;0.95;;;8.40;99.90;;;;;;6359243;22;20007;-91
2024/04/19 04:31:46;;;;;;;5.70;1.15;;;8.40;99.90;;;;;;6357841;22;20055;-93
2024/04/19 04:34:12;;;;;;;6.97;1.23;;;8.40;99.90;;;;;;6355325;22;20006;-90
2024/04/19 04:36:38;;;;;;;3.33;0.82;;;8.40;99.90;;;;;;6396903;22;20011;-92
2024/04/19 04:39:05;;;;;;;2.85;0.82;;;8.40;99.90;;;;;;6353872;22;20014;-92
2024/04/19 04:41:30;;;;;;;3.50;0.75;;;8.40;99.90;;;;;;6390734;22;20052;-93
2024/04/19 04:43:56;;;;;;;7.35;0.88;;;8.40;99.90;;;;;;6346953;22;20011;-92
2024/04/19 04:46:22;;;;;;;4.43;0.80;;;8.40;99.90;;;;;;6352641;22;19983;-92
2024/04/19 04:48:47;;;;;;;3.67;0.70;;;8.40;99.90;;;;;;6356653;22;19991;-91
2024/04/19 04:51:13;;;;;;;4.35;0.70;;;8.40;99.90;;;;;;6356507;22;20010;-92
2024/04/19 04:53:39;;;;;;;1.13;0.43;;;8.30;99.90;;;;;;6358532;22;19992;-91
2024/04/19 04:56:05;;;;;;;3.08;1.02;;;8.30;99.90;;;;;;6359324;22;19999;-91
2024/04/19 04:58:30;;;;;;;1.67;0.57;;;8.30;99.90;;;;;;6358844;22;20000;-93
2024/04/19 05:00:56;;;;;;;0.80;0.43;;;8.30;99.90;;;;;;6359002;22;20006;-93
2024/04/19 05:03:22;;;;;;;2.92;0.50;;;8.30;99.90;;;;;;6359567;22;19984;-92
2024/04/19 05:05:47;;;;;;;7.40;0.70;;;8.30;99.90;;;;;;6359082;22;19995;-93
2024/04/19 05:08:13;;;;;;;2.40;0.40;;;8.30;99.90;;;;;;6350850;22;20023;-93
2024/04/19 05:10:39;;;;;;;3.28;0.70;;;8.30;99.90;;;;;;6359526;22;19995;-90
2024/04/19 05:13:04;;;;;;;3.75;0.45;;;8.30;99.90;;;;;;6360641;22;20002;-90
2024/04/19 05:15:32;;;;;;;1.48;0.52;;;8.20;99.90;;;;;;6360503;22;19999;-93
2024/04/19 05:17:58;;;;;;;2.25;0.43;;;8.30;99.90;;;;;;6357868;22;20011;-93
2024/04/19 05:20:29;;;;;;;0.77;0.40;;;8.20;99.90;;;;;;6356434;22;20006;-91
2024/04/19 05:22:55;;;;;;;;;;;8.20;99.90;;;;;;6358314;22;19987;-94
2024/04/19 05:25:20;;;;;;;1.05;0.50;;;8.30;99.90;;;;;;6358337;22;19930;-92
2024/04/19 05:27:46;;;;;;;0.50;0.20;;;8.20;99.90;;;;;;6357492;22;19991;-92
2024/04/19 05:30:12;;;;;;;0.20;0.20;;;8.20;99.90;;;;;;6351865;22;20035;-92
2024/04/19 05:32:40;;;;;;;0.32;0.13;;;8.20;99.90;;;;;;6353333;22;20002;-93
2024/04/19 05:35:06;;;;;;;1.65;0.45;;;8.30;99.90;;;;;;6346635;22;19999;-93
2024/04/19 05:37:33;;;;;;;0.45;0.30;;;8.20;99.90;;;;;;6350157;22;20019;-90
2024/04/19 05:39:58;;;;;;;0.55;0.20;;;8.20;99.90;;;;;;6343836;22;19991;-94
2024/04/19 05:42:24;;;;;;;0.20;0.20;;;8.30;99.90;;;;;;6336862;22;20010;-92
2024/04/19 05:44:50;;;;;;;0.95;0.28;;;8.30;99.90;;;;;;6336710;22;20003;-93
2024/04/19 05:47:15;;;;;;;11.75;1.05;;;8.30;99.90;;;;;;6337427;22;20000;-93
2024/04/19 05:49:43;;;;;;;2.45;0.40;;;8.30;99.90;;;;;;6335989;22;19991;-94
2024/04/19 05:52:08;;;;;;;2.40;0.55;;;8.30;99.90;;;;;;6336146;22;20457;-93
2024/04/19 05:54:34;;;;;;;6.20;0.50;;;8.30;99.90;;;;;;6336411;22;19999;-93
2024/04/19 05:57:00;;;;;;;2.35;0.70;;;8.30;99.90;;;;;;6336186;22;20062;-93
2024/04/19 05:59:26;;;;;;;5.80;0.70;;;8.40;99.90;;;;;;6334802;22;19991;-93
2024/04/19 06:01:52;;;;;;;1.80;0.82;;;8.40;99.90;;;;;;6335701;22;20405;-94
2024/04/19 06:04:18;;;;;;;1.63;0.60;;;8.40;99.90;;;;;;6333719;22;20002;-94
2024/04/19 06:06:44;;;;;;;1.98;0.70;;;8.40;99.90;;;;;;6377797;22;20063;-94
2024/04/19 06:09:09;;;;;;;2.50;0.52;;;8.40;99.90;;;;;;6334346;22;20401;-93
2024/04/19 06:11:35;;;;;;;5.25;1.35;;;8.40;99.90;;;;;;6333878;22;19995;-93
2024/04/19 06:14:00;;;;;;;6.53;0.80;;;8.40;99.90;;;;;;6332802;22;20003;-93
2024/04/19 06:16:26;;;;;;;3.92;0.70;;;8.40;99.90;;;;;;6333314;22;19995;-94
2024/04/19 06:18:52;;;;;;;3.55;0.85;;;8.40;99.90;;;;;;6333216;22;20074;-93
2024/04/19 06:21:17;;;;;;;3.28;0.75;;;8.40;99.90;;;;;;6334087;22;20046;-93
2024/04/19 06:23:43;;;;;;;1.92;0.57;;;8.40;99.90;;;;;;6332866;22;20414;-93
2024/04/19 06:26:09;;;;;;;5.07;0.82;;;8.40;99.90;;;;;;6335198;22;20210;-94
2024/04/19 06:28:35;;;;;;;6.80;0.98;;;8.40;99.90;;;;;;6376775;22;20003;-92
2024/04/19 06:31:12;;;;;;;7.75;1.10;;;8.40;99.90;;;;;;6334738;22;20010;-93
2024/04/19 06:33:39;;;;;;;1.48;0.60;;;8.40;99.90;;;;;;6340962;22;19999;-94
2024/04/19 06:36:05;;;;;;;3.13;0.60;;;8.40;99.90;;;;;;6344353;22;20006;-93
2024/04/19 06:38:32;;;;;;;6.82;1.10;;;8.40;99.90;;;;;;6342450;22;19999;-92
2024/04/19 06:40:57;;;;;;;3.95;0.80;;;8.40;99.90;;;;;;6343692;22;19995;-92
2024/04/19 06:43:23;;;;;;;4.25;0.93;;;8.40;99.90;;;;;;6338877;22;20006;-93
2024/04/19 06:45:49;;;;;;;8.07;0.85;;;8.40;99.90;;;;;;6335888;22;20367;-93
2024/04/19 06:48:15;;;;;;;3.15;1.02;;;8.40;99.90;;;;;;6330026;22;20379;-92
2024/04/19 06:50:40;;;;;;;3.05;0.82;;;8.40;99.90;;;;;;6332954;22;20007;-94
2024/04/19 06:53:06;;;;;;;4.82;1.10;;;8.30;99.90;;;;;;6337536;22;20066;-93
2024/04/19 06:55:32;;;;;;;3.40;0.65;;;8.30;99.90;;;;;;6337085;22;20070;-93
2024/04/19 06:57:58;;;;;;;5.95;2.47;;;8.30;99.90;;;;;;6339642;22;19996;-93
2024/04/19 07:00:25;;;;;;;8.48;1.00;;;8.30;99.90;;;;;;6389035;22;19995;-93
2024/04/19 07:02:51;;;;;;;7.07;1.02;;;8.40;99.90;;;;;;6343159;22;19995;-93
2024/04/19 07:05:17;;;;;;;6.70;0.77;;;8.40;99.90;;;;;;6341826;22;20010;-94
2024/04/19 07:07:47;;;;;;;1.85;0.77;;;8.40;99.90;;;;;;6338244;22;20006;-95
2024/04/19 07:10:22;;;;;;;5.57;0.80;;;8.40;99.90;;;;;;6339954;22;20048;-94
2024/04/19 07:12:51;;;;;;;5.63;1.25;;;8.40;99.90;;;;;;6339284;22;20247;-93
2024/04/19 07:15:17;;;;;;;5.07;0.75;;;8.50;99.90;;;;;;6336254;22;19995;-93
2024/04/19 07:17:58;;;;;;;5.43;0.82;;;8.50;99.90;;;;;;6337828;22;19995;-92
2024/04/19 07:20:24;;;;;;;3.83;1.38;;;8.50;99.90;;;;;;6334073;22;20011;-92
2024/04/19 07:23:10;;;;;;;5.18;1.00;;;8.50;99.90;;;;;;6335654;22;20003;-92
2024/04/19 07:25:36;;;;;;;4.78;1.20;;;8.60;99.90;;;;;;6333757;22;20003;-92
2024/04/19 07:28:04;;;;;;;4.53;0.82;;;8.60;99.90;;;;;;6334382;22;19995;-92
2024/04/19 07:30:29;;;;;;;6.38;1.30;;;8.60;99.90;;;;;;6334505;22;20453;-93
2024/04/19 07:32:55;;;;;;;4.90;1.10;;;8.70;99.90;;;;;;6337171;22;19999;-93
2024/04/19 07:35:21;;;;;;;10.13;1.13;;;8.70;99.90;;;;;;6337155;22;19999;-93
2024/04/19 07:37:47;;;;;;;5.85;1.38;;;8.70;99.90;;;;;;6337533;22;20337;-93
2024/04/19 07:40:13;;;;;;;4.10;0.60;;;8.80;99.90;;;;;;6332625;22;19996;-93
2024/04/19 07:42:38;;;;;;;8.23;1.83;;;8.80;99.90;;;;;;6333627;22;19995;-93
2024/04/19 07:45:04;;;;;;;7.82;1.23;;;8.80;99.90;;;;;;6335402;22;20000;-93
2024/04/19 07:47:30;;;;;;;7.70;1.25;;;8.80;99.90;;;;;;6336358;22;20005;-93
2024/04/19 07:49:56;;;;;;;3.53;1.08;;;8.90;99.90;;;;;;6335030;22;20417;-93
2024/04/19 07:52:21;;;;;;;4.68;0.98;;;8.90;99.90;;;;;;6319600;22;20420;-93
2024/04/19 07:54:48;;;;;;;6.28;1.35;;;8.90;99.90;;;;;;6372132;22;20306;-94
2024/04/19 07:57:13;;;;;;;2.70;1.08;;;8.90;99.90;;;;;;6335556;22;20039;-94
2024/04/19 07:59:39;;;;;;;9.20;1.20;;;9.00;99.90;;;;;;6335479;22;20477;-93
2024/04/19 08:02:05;;;;;;;8.25;1.05;;;9.00;99.90;;;;;;6332699;22;20011;-93
2024/04/19 08:04:31;;;;;;;8.68;1.05;;;9.10;99.90;;;;;;6333841;22;19999;-93
2024/04/19 08:06:57;;;;;;;4.43;1.00;;;9.10;99.90;;;;;;6335925;22;19999;-94
2024/04/19 08:09:24;;;;;;;1.30;0.60;;;9.20;99.90;;;;;;6340963;22;20007;-93
2024/04/19 08:11:50;;;;;;;4.00;0.90;;;9.20;99.90;;;;;;6342071;22;20007;-94
2024/04/19 08:14:15;;;;;;;4.57;0.82;;;9.20;99.90;;;;;;6336995;22;20006;-94
2024/04/19 08:16:41;;;;;;;5.82;1.45;;;9.30;99.90;;;;;;6336670;22;20000;-94
2024/04/19 08:19:07;;;;;;;7.45;0.93;;;9.40;99.90;;;;;;6337909;22;20003;-94
2024/04/19 08:21:33;;;;;;;8.68;1.00;;;9.50;99.90;;;;;;6339622;22;19995;-93
2024/04/19 08:23:59;;;;;;;6.10;1.40;;;9.70;99.90;;;;;;6344033;22;20303;-94
2024/04/19 08:26:24;;;;;;;10.02;1.02;;;9.80;99.90;;;;;;6343456;22;19999;-94
2024/04/19 08:28:50;;;;;;;3.35;0.95;;;10.00;99.90;;;;;;6339259;22;20031;-93
2024/04/19 08:31:16;;;;;;;1.38;0.60;;;10.10;99.90;;;;;;6345862;22;19995;-93
2024/04/19 08:33:42;;;;;;;8.63;1.30;;;10.10;99.90;;;;;;6342815;22;20001;-95
2024/04/19 08:36:08;;;;;;;4.13;0.70;;;10.10;99.90;;;;;;6341454;22;20003;-95
2024/04/19 08:38:33;;;;;;;5.30;1.13;;;10.20;99.90;;;;;;6301467;22;20002;-95
2024/04/19 08:41:03;;;;;;;7.20;1.67;;;10.20;99.90;;;;;;6342655;22;19999;-95
2024/04/19 08:43:35;;;;;;;3.63;0.88;;;10.30;99.90;;;;;;6339811;22;19999;-95
2024/04/19 08:46:04;;;;;;;6.53;0.98;;;10.40;99.90;;;;;;6337823;22;20095;-95
2024/04/19 08:48:31;;;;;;;6.07;0.93;;;10.50;99.90;;;;;;6297812;22;19999;-95
2024/04/19 08:50:59;;;;;;;5.70;1.20;;;10.60;99.90;;;;;;6378739;22;20003;-94
2024/04/19 08:53:26;;;;;;;6.40;1.30;;;10.60;99.90;;;;;;6339814;22;20020;-94
2024/04/19 08:55:52;;;;;;;8.00;1.40;;;10.70;99.90;;;;;;6385444;22;20009;-95
2024/04/19 08:58:18;;;;;;;6.18;1.10;;;10.80;99.90;;;;;;6341809;22;20010;-94
2024/04/19 09:00:45;;;;;;;7.78;2.08;;;10.80;99.90;;;;;;6348370;22;20003;-96
2024/04/19 09:03:12;;;;;;;6.20;1.00;;;10.90;99.90;;;;;;6349385;22;19999;-94
2024/04/19 09:05:37;;;;;;;4.18;1.40;;;11.00;99.90;;;;;;6355267;22;20003;-94
2024/04/19 09:08:05;;;;;;;3.08;1.00;;;11.10;99.90;;;;;;6361868;22;19988;-91
2024/04/19 09:10:31;;;;;;;4.25;1.08;;;11.30;99.90;;;;;;6361028;22;20040;-96
2024/04/19 09:12:57;;;;;;;5.20;1.58;;;11.50;99.90;;;;;;6357143;22;20003;-94
2024/04/19 09:15:29;;;;;;;6.40;0.95;;;11.60;99.90;;;;;;6352052;22;20010;-95
2024/04/19 09:17:55;;;;;;;7.95;1.20;;;11.70;99.90;;;;;;6345196;22;20042;-95
2024/04/19 09:20:25;;;;;;;7.50;1.00;;;11.90;99.90;;;;;;6340711;22;20078;-95
2024/04/19 09:22:51;;;;;;;6.45;0.98;;;12.00;99.90;;;;;;6342650;22;20007;-94
2024/04/19 09:25:17;;;;;;;8.48;1.48;;;12.20;99.90;;;;;;6298846;22;20323;-94
2024/04/19 09:27:47;;;;;;;3.92;1.02;;;12.20;99.90;;;;;;6340596;22;19999;-94
2024/04/19 09:30:12;;;;;;;8.77;1.23;;;12.30;99.90;;;;;;6336869;22;20007;-94
2024/04/19 09:32:38;;;;;;;9.30;1.10;;;12.20;99.90;;;;;;6336398;22;20485;-94
2024/04/19 09:35:05;;;;;;;8.60;1.33;;;12.20;99.90;;;;;;6338873;22;20007;-93
2024/04/19 09:37:31;;;;;;;11.65;1.30;;;12.10;99.90;;;;;;6343610;22;19996;-93
2024/04/19 09:39:57;;;;;;;10.43;1.23;;;12.10;99.90;;;;;;6345700;22;20009;-93
2024/04/19 09:42:24;;;;;;;7.43;1.90;;;12.10;99.90;;;;;;6344856;22;20015;-93
2024/04/19 09:44:51;;;;;;;13.82;3.28;;;12.20;99.90;;;;;;6343452;22;19999;-92
2024/04/19 09:47:17;;;;;;;8.00;1.05;;;12.50;99.90;;;;;;6343675;22;20075;-94
2024/04/19 09:49:47;;;;;;;9.05;1.08;;;12.70;99.90;;;;;;6347570;22;20054;-94
2024/04/19 09:52:19;;;;;;;3.47;0.80;;;12.80;99.90;;;;;;6338244;22;20031;-93
2024/04/19 09:54:46;;;;;;;5.82;0.80;;;13.00;99.90;;;;;;6338933;22;20070;-94
2024/04/19 09:57:13;;;;;;;7.65;1.00;;;13.10;99.90;;;;;;6338931;22;20014;-94
2024/04/19 09:59:39;;;;;;;3.78;1.00;;;13.30;99.90;;;;;;6336465;22;20003;-95
2024/04/19 10:02:05;;;;;;;7.28;0.85;;;13.40;99.90;;;;;;6336077;22;20031;-95
2024/04/19 10:04:34;;;;;;;8.10;1.10;;;13.40;99.90;;;;;;6377889;22;20111;-95
2024/04/19 10:07:04;;;;;;;5.78;1.08;;;13.40;99.90;;;;;;6336268;22;20003;-94
2024/04/19 10:09:31;;;;;;;6.00;1.10;;;13.40;99.90;;;;;;6335411;22;20414;-96
2024/04/19 10:11:58;;;;;;;8.18;1.52;;;13.20;99.90;;;;;;6331768;22;20007;-95
2024/04/19 10:14:24;;;;;;;3.25;1.15;;;13.10;99.90;;;;;;6335527;22;20306;-94
2024/04/19 10:16:50;;;;;;;9.40;1.02;;;12.90;99.90;;;;;;6335265;22;20013;-95
2024/04/19 10:19:17;;;;;;;6.30;0.80;;;12.60;99.90;;;;;;6341715;22;19995;-96
2024/04/19 10:21:44;;;;;;;5.75;1.10;;;12.40;99.90;;;;;;6356882;22;20007;-91
2024/04/19 10:24:20;;;;;;;3.15;0.77;;;12.10;99.90;;;;;;6358862;22;20020;-93
2024/04/19 10:26:50;;;;;;;2.30;0.40;;;11.80;99.90;;;;;;6358743;22;20001;-91
2024/04/19 10:29:20;;;;;;;;;;;11.50;99.90;;;;;;6360998;22;19995;-90
2024/04/19 10:31:54;;;;;;;0.35;0.22;;;11.20;99.90;;;;;;6359595;22;19916;-92
2024/04/19 10:34:21;;;;;;;1.65;0.40;;;10.90;99.90;;;;;;6359448;22;20007;-93
2024/04/19 10:36:51;;;;;;;0.40;0.30;;;10.70;99.90;;;;;;6360007;22;20039;-95
2024/04/19 10:39:16;;;;;;;3.23;0.50;;;10.60;99.90;;;;;;6322047;22;19995;-92
2024/04/19 10:41:47;;;;;;;0.82;0.20;;;10.50;99.90;;;;;;6360726;22;19995;-91
2024/04/19 10:44:14;;;;;;;;;;;10.50;99.90;;;;;;6401966;22;19992;-95
2024/04/19 10:46:40;;;;;;;1.73;0.40;;;10.50;99.90;;;;;;6344995;22;19935;-91
2024/04/19 10:49:06;;;;;;;1.75;0.60;;;10.50;99.90;;;;;;6343361;22;20501;-92
2024/04/19 10:51:31;;;;;;;0.82;0.50;;;10.50;99.90;;;;;;6333356;22;20003;-93
2024/04/19 10:53:57;;;;;;;0.90;0.32;;;10.70;99.90;;;;;;6334220;22;19995;-93
2024/04/19 10:56:23;;;;;;;2.75;0.50;;;10.80;99.90;;;;;;6333706;22;19999;-93
2024/04/19 10:58:49;;;;;;;1.45;0.45;;;11.00;99.90;;;;;;6337665;22;20014;-95
2024/04/19 11:01:18;;;;;;;0.90;0.20;;;11.10;99.90;;;;;;6335031;22;20048;-95
2024/04/19 11:03:44;;;;;;;1.02;0.40;;;11.10;99.90;;;;;;6338443;22;19999;-95
2024/04/19 11:06:10;;;;;;;0.75;0.40;;;11.30;99.90;;;;;;6335683;22;20076;-94
2024/04/19 11:08:36;;;;;;;3.55;0.80;;;11.50;99.90;;;;;;6334603;22;20003;-94
2024/04/19 11:11:02;;;;;;;0.75;0.50;;;11.90;99.90;;;;;;6335511;22;20052;-94
2024/04/19 11:13:28;;;;;;;1.48;0.43;;;12.20;99.90;;;;;;6335928;22;20039;-93
2024/04/19 11:15:56;;;;;;;0.93;0.40;;;12.50;99.90;;;;;;6339859;22;20000;-95
2024/04/19 11:18:22;;;;;;;0.50;0.40;;;12.80;99.90;;;;;;6337525;22;19999;-94
2024/04/19 11:20:47;;;;;;;0.75;0.40;;;13.00;99.90;;;;;;6339040;22;20003;-93
2024/04/19 11:23:18;;;;;;;0.63;0.35;;;13.10;99.90;;;;;;6337087;22;20011;-92
2024/04/19 11:25:44;;;;;;;1.50;0.47;;;13.00;99.90;;;;;;6335146;22;20031;-94
2024/04/19 11:28:13;;;;;;;1.45;0.47;;;13.00;99.90;;;;;;6335748;22;20000;-93
2024/04/19 11:30:39;;;;;;;0.93;0.30;;;12.80;99.90;;;;;;6335001;22;19999;-94
2024/04/19 11:33:10;;;;;;;1.40;0.47;;;12.80;99.90;;;;;;6335360;22;20000;-92
2024/04/19 11:35:43;;;;;;;1.63;0.50;;;12.80;99.90;;;;;;6344016;22;19995;-94
2024/04/19 11:38:17;;;;;;;1.17;0.60;;;12.80;99.90;;;;;;6350352;22;19999;-94
2024/04/19 11:40:47;;;;;;;3.08;0.50;;;12.80;99.90;;;;;;6387473;22;19999;-92
2024/04/19 11:43:13;;;;;;;0.32;0.30;;;12.90;99.90;;;;;;6349683;22;20003;-93
2024/04/19 11:45:45;;;;;;;1.48;0.40;;;13.10;99.90;;;;;;6343570;22;20079;-94
2024/04/19 11:48:22;;;;;;;1.55;0.35;;;13.20;99.90;;;;;;6342623;22;20015;-95
2024/04/19 11:50:48;;;;;;;1.60;0.68;;;13.30;99.90;;;;;;6349289;22;19999;-93
2024/04/19 11:53:19;;;;;;;1.02;0.47;;;13.30;99.90;;;;;;6351982;22;20090;-94
2024/04/19 11:55:47;;;;;;;;;;;13.20;99.90;;;;;;6357485;22;19987;-94
2024/04/19 11:58:13;;;;;;;0.77;0.40;;;13.10;99.90;;;;;;6357141;22;19930;-93
2024/04/19 12:00:42;;;;;;;1.55;0.60;;;12.90;99.90;;;;;;6347206;22;20096;-94
2024/04/19 12:03:08;;;;;;;0.47;0.43;;;12.90;99.90;;;;;;6349008;22;20022;-93
2024/04/19 12:05:36;;;;;;;6.03;0.80;;;12.80;99.90;;;;;;6343926;22;19999;-95
2024/04/19 12:08:02;;;;;;;1.00;0.60;;;12.70;99.90;;;;;;6343945;22;20027;-95
2024/04/19 12:10:29;;;;;;;2.95;0.70;;;12.60;99.90;;;;;;6344507;22;20015;-93
2024/04/19 12:12:55;;;;;;;0.57;0.47;;;12.60;99.90;;;;;;6342485;22;20027;-94
2024/04/19 12:15:20;;;;;;;0.88;0.45;;;12.60;99.90;;;;;;6344655;22;20227;-94
2024/04/19 12:17:46;;;;;;;1.27;0.70;;;12.60;99.90;;;;;;6341646;22;20422;-94
2024/04/19 12:20:12;;;;;;;1.83;0.68;;;12.60;99.90;;;;;;6387335;22;19999;-94
2024/04/19 12:22:38;;;;;;;0.93;0.50;;;12.50;99.90;;;;;;6343439;22;19995;-94
2024/04/19 12:25:04;;;;;;;2.78;0.80;;;12.60;99.90;;;;;;6340619;22;20526;-95
2024/04/19 12:27:29;;;;;;;1.25;0.50;;;12.50;99.90;;;;;;6338108;22;19999;-95
2024/04/19 12:29:55;;;;;;;2.63;1.33;;;12.50;99.60;;;;;;6338428;22;20302;-95
2024/04/19 12:32:21;;;;;;;4.10;1.17;;;12.50;99.60;;;;;;6338345;22;20007;-94
2024/04/19 12:34:46;;;;;;;1.52;0.82;;;12.50;99.20;;;;;;6340324;22;20000;-93
2024/04/19 12:37:13;;;;;;;2.45;0.90;;;12.50;98.70;;;;;;6340231;22;20002;-94
2024/04/19 12:39:39;;;;;;;1.45;0.80;;;12.50;98.70;;;;;;6339446;22;20070;-94
2024/04/19 12:42:05;;;;;;;1.83;0.73;;;12.50;98.60;;;;;;6340675;22;20011;-94
2024/04/19 12:44:31;;;;;;;3.35;1.00;;;12.50;98.30;;;;;;6341676;22;20015;-95
2024/04/19 12:46:57;;;;;;;3.65;1.33;;;12.50;98.40;;;;;;6339900;22;20007;-94
2024/04/19 12:49:23;;;;;;;3.58;1.15;;;12.50;98.60;;;;;;6341798;22;20303;-94
2024/04/19 12:51:49;;;;;;;2.05;0.90;;;12.50;99.00;;;;;;6382526;22;20078;-95
2024/04/19 12:54:17;;;;;;;3.50;0.95;;;12.40;99.10;;;;;;6397111;22;19987;-93